DAON

Zenata – Messali El Hadj Airport

Airport
ICAO code
DAON
IATA Code
TLM
Summary
ICAO Region
AFI
ICAO Territory
Location

, Tlemcen

Serving
Tlemcen
Elevation
814 ft
Coordinates
35° 1' 0" N , 1° 26' 60" W
Metar
DAON 201930Z 06002KT CAVOK 31/14 Q1012

Runways

Designator Length Width Surface Rops
7/25 2600 45 ASP Yes/Yes

Airport map

Aerial View

SKYbrary Partners:

Safety knowledge contributed by: